Time;durP1;ratioP1;P1;durP2;ratioP2;P2;SDS_P1;SDS_P2;PMS_P1;PMS_P2;Temp;Humidity;BMP_temperature;BMP_pressure;BME280_temperature;BME280_humidity;BME280_pressure;Samples;Min_cycle;Max_cycle;Signal;HPM_P1;HPM_P2
2023/04/07 00:01:13;;;;;;;;;4.67;3.33;;;;;13.92;100.00;101483.88;5042078;28;45524;-73
2023/04/07 00:03:40;;;;;;;;;8.33;3.33;;;;;13.99;100.00;101480.38;5047757;28;45405;-73
2023/04/07 00:06:05;;;;;;;;;1.33;1.33;;;;;14.04;100.00;101479.91;5044428;28;45469;-73
2023/04/07 00:08:31;;;;;;;;;4.67;3.33;;;;;13.84;100.00;101479.16;5047504;28;46423;-73
2023/04/07 00:10:57;;;;;;;;;5.67;4.00;;;;;13.94;100.00;101474.53;5041607;28;45364;-73
2023/04/07 00:13:22;;;;;;;;;2.00;1.33;;;;;14.12;100.00;101480.00;5044658;28;45279;-73
2023/04/07 00:15:48;;;;;;;;;1.67;1.67;;;;;14.11;100.00;101491.09;5038427;28;45455;-73
2023/04/07 00:18:13;;;;;;;;;3.33;2.00;;;;;14.03;100.00;101487.25;5042964;28;45831;-73
2023/04/07 00:20:38;;;;;;;;;3.00;3.00;;;;;13.96;100.00;101471.63;5043873;28;45319;-73
2023/04/07 00:23:04;;;;;;;;;3.00;3.00;;;;;14.01;100.00;101478.38;5015135;28;45341;-73
2023/04/07 00:25:30;;;;;;;;;4.00;3.33;;;;;14.04;100.00;101474.44;5046533;28;45320;-73
2023/04/07 00:27:55;;;;;;;;;3.67;2.67;;;;;14.18;100.00;101470.31;5046714;28;45374;-73
2023/04/07 00:30:20;;;;;;;;;4.33;4.00;;;;;14.19;100.00;101466.59;5019466;28;45433;-73
2023/04/07 00:32:46;;;;;;;;;5.00;4.00;;;;;14.26;100.00;101467.69;5018884;28;45322;-73
2023/04/07 00:35:11;;;;;;;;;3.00;3.00;;;;;14.24;100.00;101458.81;5018511;28;45340;-73
2023/04/07 00:37:36;;;;;;;;;4.00;3.33;;;;;14.25;100.00;101465.97;5035315;28;47198;-73
2023/04/07 00:40:03;;;;;;;;;2.00;1.00;;;;;14.29;100.00;101464.66;5043990;28;45418;-73
2023/04/07 00:42:28;;;;;;;;;3.67;3.00;;;;;14.27;100.00;101467.53;5018088;28;45254;-73
2023/04/07 00:44:53;;;;;;;;;2.00;2.00;;;;;14.14;100.00;101447.06;5044356;28;45378;-72
2023/04/07 00:47:19;;;;;;;;;5.00;3.00;;;;;14.04;100.00;101458.91;5022053;28;45648;-72
2023/04/07 00:49:44;;;;;;;;;4.67;2.33;;;;;14.02;100.00;101457.38;5044106;28;45437;-72
2023/04/07 00:52:11;;;;;;;;;4.00;2.67;;;;;14.09;100.00;101454.88;5038666;28;45232;-72
2023/04/07 00:54:38;;;;;;;;;2.00;2.00;;;;;13.96;100.00;101467.00;5045810;28;45348;-72
2023/04/07 00:57:03;;;;;;;;;4.33;3.33;;;;;13.90;100.00;101469.50;5021870;28;47019;-72
2023/04/07 00:59:31;;;;;;;;;5.33;3.00;;;;;13.72;100.00;101468.59;5047055;28;45638;-72
2023/04/07 01:02:15;;;;;;;;;4.00;3.33;;;;;13.79;100.00;101459.66;5042458;28;45407;-72
2023/04/07 01:04:43;;;;;;;;;5.67;4.33;;;;;13.82;100.00;101458.47;5033876;28;45707;-72
2023/04/07 01:07:16;;;;;;;;;5.33;4.00;;;;;13.82;100.00;101464.78;5042460;28;45547;-74
2023/04/07 01:09:48;;;;;;;;;9.00;3.00;;;;;13.81;100.00;101465.81;5014455;28;45411;-73
2023/04/07 01:12:33;;;;;;;;;5.00;4.33;;;;;13.89;100.00;101465.03;5024365;28;45508;-73
2023/04/07 01:15:03;;;;;;;;;2.00;2.00;;;;;13.79;100.00;101459.66;5023982;28;45570;-74
2023/04/07 01:17:33;;;;;;;;;9.00;4.00;;;;;13.78;100.00;101452.47;5037911;28;46226;-73
2023/04/07 01:20:07;;;;;;;;;4.67;4.00;;;;;13.80;100.00;101477.78;5043468;28;45438;-74
2023/04/07 01:22:54;;;;;;;;;4.00;3.67;;;;;13.83;100.00;101469.25;5026066;28;45386;-74
2023/04/07 01:26:03;;;;;;;;;3.67;3.67;;;;;13.81;100.00;101468.53;5031137;28;45647;-72
2023/04/07 01:28:53;;;;;;;;;4.67;3.67;;;;;13.78;100.00;101460.66;5041450;28;46604;-72
2023/04/07 01:31:21;;;;;;;;;6.33;6.33;;;;;13.90;100.00;101467.63;5022979;28;45550;-73
2023/04/07 01:33:49;;;;;;;;;4.00;2.67;;;;;14.06;100.00;101455.19;5046796;28;45510;-73
2023/04/07 01:36:16;;;;;;;;;5.67;4.00;;;;;14.04;100.00;101445.25;5022075;28;45417;-73
2023/04/07 01:38:43;;;;;;;;;3.33;3.33;;;;;14.02;100.00;101454.63;5034783;28;46745;-72
2023/04/07 01:41:09;;;;;;;;;9.67;4.00;;;;;14.09;100.00;101452.16;5018328;28;45506;-72
2023/04/07 01:43:36;;;;;;;;;4.33;4.33;;;;;14.00;100.00;101445.72;5025520;28;45419;-72
2023/04/07 01:46:03;;;;;;;;;5.00;5.00;;;;;14.02;100.00;101463.69;5037277;28;45471;-73
2023/04/07 01:48:29;;;;;;;;;5.00;5.00;;;;;14.12;100.00;101460.03;5048349;28;45587;-73
2023/04/07 01:50:55;;;;;;;;;3.67;3.00;;;;;13.93;100.00;101464.59;5036218;28;45165;-73
2023/04/07 01:53:22;;;;;;;;;4.33;3.00;;;;;13.94;100.00;101466.34;5041396;28;45255;-73
2023/04/07 01:55:48;;;;;;;;;9.00;4.33;;;;;13.93;100.00;101461.88;5018387;28;45973;-72
2023/04/07 01:58:13;;;;;;;;;3.33;3.00;;;;;14.03;100.00;101462.66;5048509;28;45587;-73
2023/04/07 02:00:39;;;;;;;;;4.67;3.00;;;;;14.16;100.00;101461.44;5022290;28;45494;-73
2023/04/07 02:03:11;;;;;;;;;5.00;4.00;;;;;14.12;100.00;101455.41;5049506;28;45315;-73
2023/04/07 02:05:39;;;;;;;;;4.00;3.67;;;;;14.13;100.00;101464.47;5024273;28;45486;-72
2023/04/07 02:08:07;;;;;;;;;4.00;3.33;;;;;14.03;100.00;101473.59;5048701;28;45601;-73
2023/04/07 02:10:35;;;;;;;;;8.00;5.00;;;;;13.98;100.00;101453.22;5022513;28;45478;-72
2023/04/07 02:13:05;;;;;;;;;6.00;6.00;;;;;14.02;100.00;101458.22;5041689;28;45424;-74
2023/04/07 02:15:31;;;;;;;;;4.00;4.00;;;;;13.76;100.00;101473.59;5024822;28;45626;-74
2023/04/07 02:17:58;;;;;;;;;7.00;4.67;;;;;13.94;100.00;101481.84;5039028;28;46076;-74
2023/04/07 02:20:24;;;;;;;;;9.33;5.00;;;;;14.00;100.00;101478.50;5044360;28;45316;-73
2023/04/07 02:22:50;;;;;;;;;11.67;6.00;;;;;13.89;100.00;101476.84;5045087;28;45342;-74
2023/04/07 02:25:22;;;;;;;;;5.67;4.00;;;;;13.94;100.00;101487.31;5047327;28;45351;-73
2023/04/07 02:27:47;;;;;;;;;6.00;5.00;;;;;13.86;100.00;101485.34;5037695;28;46099;-72
2023/04/07 02:30:13;;;;;;;;;4.00;4.00;;;;;13.86;100.00;101479.88;5024669;28;45534;-72
2023/04/07 02:32:38;;;;;;;;;8.00;6.00;;;;;13.87;100.00;101469.81;5018135;28;45460;-72
2023/04/07 02:35:04;;;;;;;;;7.67;4.33;;;;;13.96;100.00;101483.41;5042585;28;45509;-72
2023/04/07 02:37:29;;;;;;;;;3.33;2.67;;;;;13.72;100.00;101469.47;5035030;28;47793;-73
2023/04/07 02:39:55;;;;;;;;;9.25;9.25;;;;;13.79;100.00;101467.84;5042471;28;45598;-72
2023/04/07 02:42:20;;;;;;;;;7.00;6.00;;;;;13.74;100.00;101474.75;5036136;28;45408;-72
2023/04/07 02:44:45;;;;;;;;;4.67;4.00;;;;;13.83;100.00;101471.97;5044087;28;45387;-72
2023/04/07 02:47:11;;;;;;;;;6.67;4.67;;;;;13.83;100.00;101469.25;5043881;28;45527;-72
2023/04/07 02:49:36;;;;;;;;;5.00;4.33;;;;;13.93;100.00;101470.06;5047841;28;45424;-71
2023/04/07 02:52:01;;;;;;;;;6.67;6.67;;;;;13.89;100.00;101459.59;5022527;28;45378;-72
2023/04/07 02:54:27;;;;;;;;;5.33;4.00;;;;;13.97;100.00;101449.63;5047772;28;45653;-72
2023/04/07 02:56:52;;;;;;;;;5.00;4.00;;;;;14.00;100.00;101440.25;5042121;28;45382;-73
2023/04/07 02:59:17;;;;;;;;;10.33;5.00;;;;;13.95;100.00;101454.38;5027311;28;45776;-72
2023/04/07 03:01:43;;;;;;;;;7.67;4.00;;;;;13.98;100.00;101451.34;5038920;28;45602;-71
2023/04/07 03:04:08;;;;;;;;;5.00;4.00;;;;;13.96;100.00;101450.63;5046891;28;45381;-72
2023/04/07 03:06:33;;;;;;;;;6.00;6.00;;;;;13.86;100.00;101455.31;5014171;28;46194;-72
2023/04/07 03:08:59;;;;;;;;;5.33;5.33;;;;;13.69;100.00;101460.69;5022199;28;45410;-72
2023/04/07 03:11:24;;;;;;;;;4.00;4.00;;;;;13.69;100.00;101453.38;5039672;28;45455;-72
2023/04/07 03:13:50;;;;;;;;;9.00;6.00;;;;;13.64;100.00;101472.09;5047537;28;45452;-73
2023/04/07 03:16:15;;;;;;;;;11.67;4.67;;;;;13.42;100.00;101447.91;5031986;28;45824;-73
2023/04/07 03:18:41;;;;;;;;;9.33;3.67;;;;;13.45;100.00;101458.50;5027500;28;45387;-73
2023/04/07 03:21:06;;;;;;;;;6.33;4.67;;;;;13.35;100.00;101453.09;5023318;28;45348;-72
2023/04/07 03:23:31;;;;;;;;;7.67;5.00;;;;;13.36;100.00;101451.22;5045116;28;45586;-72
2023/04/07 03:25:57;;;;;;;;;5.67;5.67;;;;;13.30;100.00;101462.72;5042524;28;46462;-72
2023/04/07 03:28:22;;;;;;;;;4.00;4.00;;;;;13.26;100.00;101462.19;5046005;28;44862;-72
2023/04/07 03:30:47;;;;;;;;;8.00;5.00;;;;;13.31;100.00;101476.22;5039331;28;45478;-73
2023/04/07 03:33:13;;;;;;;;;7.33;5.33;;;;;13.15;100.00;101460.47;5032414;28;45412;-72
2023/04/07 03:35:38;;;;;;;;;8.00;5.33;;;;;13.17;100.00;101472.09;5023575;28;46952;-73
2023/04/07 03:38:03;;;;;;;;;7.00;4.00;;;;;12.95;100.00;101468.81;5034320;28;45235;-73
2023/04/07 03:40:29;;;;;;;;;9.33;5.67;;;;;12.98;100.00;101469.41;5012073;28;45427;-73
2023/04/07 03:42:54;;;;;;;;;10.00;8.50;;;;;12.83;100.00;101463.53;5020291;28;45434;-73
2023/04/07 03:45:19;;;;;;;;;5.67;4.67;;;;;12.62;100.00;101456.53;5040186;28;45539;-73
2023/04/07 03:47:45;;;;;;;;;8.33;5.67;;;;;12.72;100.00;101463.66;5021456;28;45322;-72
2023/04/07 03:50:10;;;;;;;;;9.67;7.00;;;;;12.82;100.00;101470.00;5009185;28;45255;-73
2023/04/07 03:52:36;;;;;;;;;12.67;8.00;;;;;12.74;100.00;101466.25;5026510;28;45430;-73
2023/04/07 03:55:01;;;;;;;;;9.67;7.33;;;;;12.79;100.00;101472.13;5011649;28;45733;-73
2023/04/07 03:57:26;;;;;;;;;11.67;8.00;;;;;12.73;100.00;101476.31;5021332;28;45307;-74
2023/04/07 03:59:55;;;;;;;;;8.00;7.00;;;;;12.69;100.00;101466.72;5026773;28;45871;-74
2023/04/07 04:02:20;;;;;;;;;11.00;11.00;;;;;12.77;100.00;101471.44;5041960;28;45474;-73
2023/04/07 04:04:45;;;;;;;;;10.67;6.67;;;;;12.75;100.00;101462.53;5044491;28;46062;-73
2023/04/07 04:07:11;;;;;;;;;4.67;4.67;;;;;12.70;100.00;101471.16;5041154;28;45372;-73
2023/04/07 04:09:36;;;;;;;;;9.67;9.67;;;;;12.63;100.00;101477.34;5044862;28;45478;-71
2023/04/07 04:12:01;;;;;;;;;7.00;7.00;;;;;12.72;100.00;101474.56;5033282;28;45442;-72
2023/04/07 04:14:27;;;;;;;;;10.00;8.00;;;;;12.71;100.00;101472.03;5027649;28;47351;-72
2023/04/07 04:16:53;;;;;;;;;8.00;4.67;;;;;12.69;100.00;101484.94;5032869;28;50340;-72
2023/04/07 04:19:18;;;;;;;;;2.67;1.33;;;;;12.75;100.00;101481.63;5028714;28;45257;-73
2023/04/07 04:21:44;;;;;;;;;7.33;4.00;;;;;12.71;100.00;101481.03;5022909;28;45420;-73
2023/04/07 04:24:10;;;;;;;;;9.00;7.67;;;;;12.63;100.00;101491.81;5046822;28;45506;-73
2023/04/07 04:26:35;;;;;;;;;9.00;8.00;;;;;12.60;100.00;101493.97;5039565;28;45414;-72
2023/04/07 04:29:02;;;;;;;;;10.33;9.00;;;;;12.67;100.00;101504.16;5016602;28;45415;-76
2023/04/07 04:31:27;;;;;;;;;12.33;9.00;;;;;12.60;100.00;101502.13;5041161;28;45385;-74
2023/04/07 04:33:52;;;;;;;;;9.33;8.00;;;;;12.61;100.00;101509.31;5038198;28;45271;-78
2023/04/07 04:36:18;;;;;;;;;10.00;10.00;;;;;12.45;100.00;101497.13;5019627;28;45253;-75
2023/04/07 04:38:43;;;;;;;;;12.67;10.00;;;;;12.46;100.00;101490.66;5038830;28;45313;-76
2023/04/07 04:41:08;;;;;;;;;19.33;9.00;;;;;12.34;100.00;101480.91;5019373;28;45510;-75
2023/04/07 04:43:34;;;;;;;;;10.67;10.67;;;;;12.41;100.00;101497.56;5030865;28;47448;-75
2023/04/07 04:45:59;;;;;;;;;9.33;9.00;;;;;12.43;100.00;101485.47;5036746;28;45517;-75
2023/04/07 04:48:25;;;;;;;;;11.67;7.67;;;;;12.60;100.00;101510.31;5049486;28;45270;-76
2023/04/07 04:50:50;;;;;;;;;9.00;8.00;;;;;12.44;100.00;101498.13;5020448;28;45447;-76
2023/04/07 04:53:15;;;;;;;;;9.33;9.33;;;;;12.54;100.00;101503.59;5031409;28;47141;-76
2023/04/07 04:55:45;;;;;;;;;9.00;8.00;;;;;12.49;100.00;101500.44;5024406;28;45971;-75
2023/04/07 04:58:11;;;;;;;;;11.50;10.25;;;;;12.40;100.00;101490.38;5047164;28;45366;-74
2023/04/07 05:00:36;;;;;;;;;10.25;10.00;;;;;12.40;100.00;101507.59;5039606;28;45370;-76
2023/04/07 05:03:02;;;;;;;;;14.67;9.00;;;;;12.39;100.00;101508.59;5046757;28;45371;-76
2023/04/07 05:05:27;;;;;;;;;13.50;9.50;;;;;12.32;100.00;101510.16;5020887;28;45476;-75
2023/04/07 05:07:53;;;;;;;;;16.00;12.00;;;;;12.27;100.00;101506.97;5025870;28;45421;-75
2023/04/07 05:10:18;;;;;;;;;13.33;9.67;;;;;12.29;100.00;101496.81;5040368;28;45483;-75
2023/04/07 05:12:43;;;;;;;;;11.00;10.25;;;;;12.25;100.00;101499.97;5016059;28;48263;-76
2023/04/07 05:15:09;;;;;;;;;9.00;9.00;;;;;12.28;100.00;101500.53;5029868;28;45248;-74
2023/04/07 05:17:35;;;;;;;;;14.00;9.33;;;;;12.31;100.00;101502.13;5024929;28;45395;-75
2023/04/07 05:20:00;;;;;;;;;11.33;10.00;;;;;12.18;100.00;101496.94;5044239;28;45435;-75
2023/04/07 05:22:25;;;;;;;;;8.67;8.00;;;;;12.36;100.00;101513.44;5030801;28;48438;-76
2023/04/07 05:24:51;;;;;;;;;11.33;8.33;;;;;12.39;100.00;101514.03;5044583;28;45410;-75
2023/04/07 05:27:16;;;;;;;;;8.33;8.33;;;;;12.22;100.00;101487.47;5035922;28;45824;-74
2023/04/07 05:29:41;;;;;;;;;9.75;9.75;;;;;12.26;100.00;101486.22;5019539;28;45337;-77
2023/04/07 05:32:07;;;;;;;;;10.00;8.25;;;;;12.28;100.00;101511.41;5020896;28;46496;-74
2023/04/07 05:34:32;;;;;;;;;14.75;10.75;;;;;12.31;100.00;101502.13;5038350;28;48850;-75
2023/04/07 05:36:57;;;;;;;;;9.67;9.33;;;;;12.37;100.00;101513.31;5019678;28;45365;-76
2023/04/07 05:39:23;;;;;;;;;8.50;8.25;;;;;12.46;100.00;101509.75;5039284;28;45385;-75
2023/04/07 05:41:48;;;;;;;;;13.50;11.00;;;;;12.44;100.00;101503.56;5035552;28;46031;-76
2023/04/07 05:44:14;;;;;;;;;9.67;8.33;;;;;12.64;100.00;101525.41;5011615;28;45232;-76
2023/04/07 05:46:39;;;;;;;;;15.75;11.00;;;;;12.69;100.00;101517.66;5038435;28;45316;-76
2023/04/07 05:49:04;;;;;;;;;15.50;11.50;;;;;12.71;100.00;101521.94;5045710;28;45490;-76
2023/04/07 05:51:30;;;;;;;;;11.25;11.25;;;;;12.64;100.00;101528.13;5040690;28;45396;-77
2023/04/07 05:53:55;;;;;;;;;15.00;10.67;;;;;12.41;100.00;101524.81;5038706;28;46047;-75
2023/04/07 05:56:24;;;;;;;;;15.00;12.75;;;;;12.52;100.00;101516.47;5023859;28;45479;-76
2023/04/07 05:58:49;;;;;;;;;14.00;10.50;;;;;12.48;100.00;101521.38;5019021;28;45426;-76
2023/04/07 06:01:14;;;;;;;;;13.00;10.75;;;;;12.51;100.00;101513.88;5040544;28;45438;-77
2023/04/07 06:03:40;;;;;;;;;16.00;14.00;;;;;12.58;100.00;101523.22;5018302;28;45438;-76
2023/04/07 06:06:05;;;;;;;;;11.33;10.00;;;;;12.80;100.00;101537.44;5040634;28;45419;-75
2023/04/07 06:08:31;;;;;;;;;16.75;13.00;;;;;12.60;100.00;101518.50;5044160;28;45475;-76
2023/04/07 06:10:56;;;;;;;;;14.25;11.50;;;;;12.62;100.00;101519.22;5017679;28;48243;-75
2023/04/07 06:13:21;;;;;;;;;11.00;11.00;;;;;13.50;100.00;101540.84;5040351;28;45417;-74
2023/04/07 06:15:47;;;;;;;;;18.00;11.50;;;;;13.21;100.00;101519.94;5038442;28;45434;-75
2023/04/07 06:18:12;;;;;;;;;16.25;15.75;;;;;13.20;100.00;101540.03;5012053;28;45469;-76
2023/04/07 06:20:37;;;;;;;;;15.75;15.75;;;;;12.94;100.00;101521.63;5042001;28;45355;-75
2023/04/07 06:23:03;;;;;;;;;19.00;14.00;;;;;12.97;100.00;101524.94;5045107;28;45284;-76
2023/04/07 06:25:28;;;;;;;;;13.00;11.50;;;;;13.13;100.00;101533.44;5045416;28;45393;-76
2023/04/07 06:27:54;;;;;;;;;15.50;14.25;;;;;13.30;100.00;101552.78;5044014;28;45328;-78
2023/04/07 06:30:19;;;;;;;;;16.00;14.00;;;;;13.28;100.00;101546.63;5021222;28;48034;-78
2023/04/07 06:32:45;;;;;;;;;18.00;15.67;;;;;13.48;100.00;101565.53;5033667;28;45264;-78
2023/04/07 06:35:11;;;;;;;;;12.50;12.50;;;;;13.60;100.00;101567.09;5041068;28;45477;-78
2023/04/07 06:37:38;;;;;;;;;21.75;18.00;;;;;13.24;100.00;101568.75;5016337;28;45774;-78
2023/04/07 06:40:04;;;;;;;;;10.00;8.25;;;;;13.38;100.00;101575.59;5041253;28;45369;-77
2023/04/07 06:42:29;;;;;;;;;13.67;11.00;;;;;13.49;100.00;101571.88;5018956;28;45826;-77
2023/04/07 06:44:55;;;;;;;;;16.00;15.00;;;;;13.42;100.00;101565.28;5044791;28;45353;-77
2023/04/07 06:47:20;;;;;;;;;16.25;14.25;;;;;13.70;100.00;101582.59;5039455;28;45402;-78
2023/04/07 06:49:46;;;;;;;;;13.33;10.33;;;;;13.83;100.00;101589.44;5042202;28;45782;-78
2023/04/07 06:52:11;;;;;;;;;14.50;14.50;;;;;13.92;100.00;101569.44;5038757;28;45323;-77
2023/04/07 06:54:36;;;;;;;;;16.00;8.50;;;;;13.83;100.00;101574.91;5015918;28;45356;-77
2023/04/07 06:57:02;;;;;;;;;18.67;13.67;;;;;13.75;100.00;101588.44;5017369;28;45617;-78
2023/04/07 06:59:27;;;;;;;;;14.50;14.50;;;;;13.73;100.00;101579.56;5047278;28;45528;-77
2023/04/07 07:01:52;;;;;;;;;15.50;13.25;;;;;13.66;100.00;101590.22;5038466;28;45400;-78
2023/04/07 07:04:18;;;;;;;;;15.33;12.00;;;;;14.12;100.00;101591.19;5023039;28;45347;-78
2023/04/07 07:06:43;;;;;;;;;18.75;15.00;;;;;14.29;100.00;101579.47;5022139;28;45440;-77
2023/04/07 07:09:08;;;;;;;;;5.25;5.00;;;;;14.45;100.00;101590.63;5047563;28;46568;-77
2023/04/07 07:11:34;;;;;;;;;18.75;13.00;;;;;14.26;100.00;101596.16;5014178;28;45165;-77
2023/04/07 07:13:59;;;;;;;;;24.00;16.75;;;;;14.19;100.00;101582.22;5047044;28;45458;-77
2023/04/07 07:16:24;;;;;;;;;18.75;18.00;;;;;14.45;100.00;101597.97;5033020;28;45210;-77
2023/04/07 07:18:50;;;;;;;;;14.75;12.00;;;;;14.64;100.00;101598.69;5046486;28;46050;-77
2023/04/07 07:21:16;;;;;;;;;26.50;19.00;;;;;14.57;100.00;101604.94;5041433;28;45987;-77
2023/04/07 07:23:42;;;;;;;;;18.75;16.00;;;;;14.32;100.00;101614.69;5045818;28;45220;-77
2023/04/07 07:26:07;;;;;;;;;17.75;14.00;;;;;14.19;100.00;101608.69;5023613;28;45252;-76
2023/04/07 07:28:32;;;;;;;;;24.50;21.75;;;;;14.32;100.00;101617.41;5047333;28;45599;-77
2023/04/07 07:30:58;;;;;;;;;14.50;13.00;;;;;14.47;100.00;101602.25;5021281;28;49761;-78
2023/04/07 07:33:23;;;;;;;;;15.75;13.00;;;;;14.60;100.00;101612.84;5027751;28;45662;-77
2023/04/07 07:35:48;;;;;;;;;18.25;15.75;;;;;14.59;100.00;101611.13;5008606;28;45657;-77
2023/04/07 07:38:14;;;;;;;;;16.25;12.50;;;;;14.54;100.00;101600.63;5026279;28;46971;-77
2023/04/07 07:40:40;;;;;;;;;23.75;19.75;;;;;14.56;100.00;101612.28;5016972;28;45391;-77
2023/04/07 07:43:05;;;;;;;;;17.50;14.50;;;;;14.70;100.00;101611.75;5039260;28;45832;-78
2023/04/07 07:45:30;;;;;;;;;14.75;12.00;;;;;15.16;100.00;101626.25;5036703;28;45655;-77
2023/04/07 07:47:56;;;;;;;;;17.50;14.00;;;;;15.01;100.00;101597.72;5026963;28;46974;-78
2023/04/07 07:50:21;;;;;;;;;19.25;15.75;;;;;15.34;100.00;101624.34;5009562;28;45798;-77
2023/04/07 07:52:47;;;;;;;;;14.50;11.00;;;;;15.37;100.00;101599.41;5046021;28;45339;-78
2023/04/07 07:55:12;;;;;;;;;17.25;15.25;;;;;15.30;100.00;101611.16;5014349;28;45599;-78
2023/04/07 07:57:37;;;;;;;;;16.50;13.25;;;;;15.44;100.00;101613.31;5046833;28;46220;-78
2023/04/07 08:00:03;;;;;;;;;24.00;19.50;;;;;15.52;100.00;101610.66;5042471;28;45468;-78
2023/04/07 08:02:30;;;;;;;;;14.00;8.25;;;;;15.31;100.00;101590.97;5040905;28;45441;-78
2023/04/07 08:04:59;;;;;;;;;22.00;18.75;;;;;15.41;100.00;101592.59;5045686;28;45274;-78
2023/04/07 08:07:26;;;;;;;;;16.33;14.33;;;;;15.58;100.00;101616.38;5047071;28;46342;-78
2023/04/07 08:09:51;;;;;;;;;19.50;18.00;;;;;15.90;100.00;101603.91;5018921;28;45471;-78
2023/04/07 08:12:17;;;;;;;;;20.50;14.75;;;;;15.88;100.00;101616.91;5023521;28;45328;-78
2023/04/07 08:14:42;;;;;;;;;16.75;16.00;;;;;16.10;100.00;101612.75;5035637;28;45332;-77
2023/04/07 08:17:08;;;;;;;;;15.00;14.75;;;;;16.54;100.00;101624.44;5044471;28;46132;-77
2023/04/07 08:19:33;;;;;;;;;15.75;14.25;;;;;16.83;100.00;101619.41;5027826;28;45561;-77
2023/04/07 08:21:58;;;;;;;;;13.33;11.67;;;;;17.20;100.00;101629.09;5045762;28;45371;-78
2023/04/07 08:24:24;;;;;;;;;13.33;12.67;;;;;17.08;100.00;101617.59;5029881;28;45616;-76
2023/04/07 08:26:49;;;;;;;;;19.50;16.75;;;;;17.22;100.00;101627.03;5047278;28;46505;-77
2023/04/07 08:29:15;;;;;;;;;21.50;16.00;;;;;17.08;100.00;101629.44;5046785;28;45323;-76
2023/04/07 08:31:40;;;;;;;;;17.00;12.50;;;;;17.65;100.00;101621.22;5038834;28;45480;-78
2023/04/07 08:34:06;;;;;;;;;13.50;13.25;;;;;17.62;100.00;101616.06;5035255;28;45404;-78
2023/04/07 08:36:31;;;;;;;;;15.00;12.67;;;;;17.47;100.00;101624.13;5039867;28;47521;-77
2023/04/07 08:38:59;;;;;;;;;16.50;16.50;;;;;17.72;100.00;101626.91;5034861;28;45308;-78
2023/04/07 08:41:32;;;;;;;;;17.75;11.25;;;;;17.92;100.00;101632.88;5019248;28;45366;-77
2023/04/07 08:43:58;;;;;;;;;18.50;15.75;;;;;18.10;100.00;101633.53;5033292;28;45268;-77
2023/04/07 08:46:24;;;;;;;;;13.50;12.75;;;;;18.06;100.00;101629.41;5040632;28;46361;-77
2023/04/07 08:48:51;;;;;;;;;12.50;10.00;;;;;18.45;100.00;101629.44;5027521;28;45277;-78
2023/04/07 08:51:28;;;;;;;;;17.33;17.33;;;;;18.58;100.00;101636.13;5017015;28;45520;-77
2023/04/07 08:54:02;;;;;;;;;12.67;12.67;;;;;18.67;100.00;101634.19;5015299;28;45657;-76
2023/04/07 08:56:28;;;;;;;;;19.25;18.00;;;;;18.72;100.00;101636.41;5019070;28;46224;-77
2023/04/07 08:58:54;;;;;;;;;14.00;12.00;;;;;19.40;100.00;101626.31;5041115;28;45674;-77
2023/04/07 09:01:20;;;;;;;;;23.50;22.75;;;;;19.88;98.47;101624.16;5021342;28;45237;-76
2023/04/07 09:03:48;;;;;;;;;15.00;15.00;;;;;20.23;100.00;101632.78;5014389;28;45343;-76
2023/04/07 09:06:14;;;;;;;;;18.00;11.33;;;;;20.55;93.07;101627.72;5023033;28;46573;-77
2023/04/07 09:08:39;;;;;;;;;13.33;12.00;;;;;21.13;90.38;101634.16;5041009;28;45420;-76
2023/04/07 09:11:05;;;;;;;;;16.00;15.00;;;;;20.68;85.66;101640.00;5022961;28;45450;-77
2023/04/07 09:13:30;;;;;;;;;20.00;16.00;;;;;20.26;86.51;101630.47;5026257;28;45463;-76
2023/04/07 09:15:56;;;;;;;;;17.67;13.00;;;;;20.39;85.45;101633.44;5032742;28;47301;-76
2023/04/07 09:18:22;;;;;;;;;14.33;13.00;;;;;20.60;83.27;101622.47;5009382;28;45343;-77
2023/04/07 09:21:02;;;;;;;;;15.00;13.33;;;;;20.31;85.69;101644.56;5022266;28;45468;-77
2023/04/07 09:23:33;;;;;;;;;14.00;13.00;;;;;20.64;83.57;101641.44;5024476;28;45370;-77
2023/04/07 09:26:17;;;;;;;;;18.33;14.67;;;;;20.96;80.81;101632.72;5022828;28;45284;-78
2023/04/07 09:28:47;;;;;;;;;11.67;11.67;;;;;21.25;79.45;101634.56;5040510;28;45374;-77
2023/04/07 09:31:12;;;;;;;;;13.00;10.67;;;;;21.18;77.66;101628.97;5019224;28;45294;-77
2023/04/07 09:33:38;;;;;;;;;11.33;11.33;;;;;21.52;76.30;101630.13;5014205;28;45473;-76
2023/04/07 09:36:07;;;;;;;;;9.00;9.00;;;;;21.80;73.78;101639.31;5016379;28;47108;-76
2023/04/07 09:38:35;;;;;;;;;13.00;8.67;;;;;22.04;69.91;101647.19;5039747;28;45252;-78
2023/04/07 09:41:11;;;;;;;;;11.00;8.33;;;;;22.28;68.59;101648.63;5018235;28;45367;-77
2023/04/07 09:43:39;;;;;;;;;16.33;11.67;;;;;22.10;71.28;101640.84;5015876;28;46188;-77
2023/04/07 09:46:11;;;;;;;;;12.33;11.00;;;;;21.73;69.85;101635.63;5014467;28;47989;-78
2023/04/07 09:48:37;;;;;;;;;14.00;12.00;;;;;21.35;68.95;101633.16;5018216;28;45275;-76
2023/04/07 09:51:07;;;;;;;;;12.33;12.00;;;;;21.05;67.38;101641.72;5031266;28;45245;-77
2023/04/07 09:53:50;;;;;;;;;12.00;12.00;;;;;20.89;67.46;101645.59;5039018;28;44770;-78
2023/04/07 09:56:17;;;;;;;;;14.67;12.33;;;;;20.83;69.75;101640.81;5023524;28;47038;-78
2023/04/07 09:58:45;;;;;;;;;10.33;10.33;;;;;20.70;69.48;101629.63;5027071;28;45485;-78
2023/04/07 10:01:12;;;;;;;;;11.33;11.33;;;;;20.46;70.66;101639.06;5024034;28;45340;-79
2023/04/07 10:03:38;;;;;;;;;13.67;11.33;;;;;20.78;70.85;101627.59;5026665;28;45561;-76
2023/04/07 10:06:08;;;;;;;;;11.33;10.33;;;;;21.26;66.75;101641.75;5017642;28;45410;-78
2023/04/07 10:08:35;;;;;;;;;10.00;10.00;;;;;20.79;64.38;101634.84;5025772;28;45421;-77
2023/04/07 10:11:02;;;;;;;;;7.00;2.00;;;;;20.36;63.96;101633.84;5020343;28;45521;-77
2023/04/07 10:13:33;;;;;;;;;9.67;9.67;;;;;20.70;63.63;101643.41;5042721;28;45454;-79
2023/04/07 10:16:01;;;;;;;;;12.67;10.00;;;;;21.04;62.69;101651.91;5016862;28;47594;-77
2023/04/07 10:18:35;;;;;;;;;10.00;10.00;;;;;21.43;64.06;101640.47;5026318;28;45330;-76
2023/04/07 10:21:13;;;;;;;;;12.00;11.00;;;;;21.81;59.77;101642.94;5016827;28;45642;-79
2023/04/07 10:24:14;;;;;;;;;10.33;9.33;;;;;21.45;57.89;101646.66;5035386;28;45409;-78
2023/04/07 10:26:50;;;;;;;;;9.67;9.00;;;;;20.73;56.65;101585.91;5035309;28;47392;-77
2023/04/07 10:29:18;;;;;;;;;12.00;10.33;;;;;20.15;57.89;101615.28;5037116;28;45243;-76
2023/04/07 10:31:45;;;;;;;;;9.67;9.67;;;;;20.05;57.96;101653.31;5020415;28;45548;-77
2023/04/07 10:34:10;;;;;;;;;5.33;3.33;;;;;19.33;58.90;101643.75;5016597;28;45473;-77
2023/04/07 10:37:16;;;;;;;;;10.00;8.67;;;;;19.51;59.61;101647.06;5034568;28;47432;-76
2023/04/07 10:39:42;;;;;;;;;12.33;10.33;;;;;19.44;60.26;101633.16;5018641;28;45288;-78
2023/04/07 10:42:36;;;;;;;;;10.00;10.00;;;;;19.24;59.78;101658.63;5018188;28;45569;-78
2023/04/07 10:45:03;;;;;;;;;10.00;8.67;;;;;18.80;61.95;101639.97;5018011;28;45332;-77
2023/04/07 10:47:29;;;;;;;;;7.67;7.00;;;;;18.57;65.28;101647.31;5018423;28;47965;-77
2023/04/07 10:50:13;;;;;;;;;5.00;5.00;;;;;19.70;63.02;101648.50;5024127;28;45280;-77
2023/04/07 10:52:38;;;;;;;;;8.00;8.00;;;;;20.28;60.05;101646.84;5044444;28;45300;-77
2023/04/07 10:55:32;;;;;;;;;12.00;11.67;;;;;20.75;58.25;101622.44;5015352;28;45350;-77
2023/04/07 10:58:15;;;;;;;;;15.67;11.00;;;;;20.90;56.04;101630.69;5046808;28;46703;-77
2023/04/07 11:00:41;;;;;;;;;8.33;8.33;;;;;20.49;57.66;101638.69;5041118;28;45538;-78
2023/04/07 11:03:12;;;;;;;;;10.67;9.67;;;;;20.20;58.41;101639.53;5047982;28;45430;-77
2023/04/07 11:05:38;;;;;;;;;12.33;11.00;;;;;20.09;58.23;101613.25;5020902;28;45456;-78
2023/04/07 11:08:05;;;;;;;;;8.00;7.67;;;;;20.52;59.16;101614.34;5039632;28;46076;-78
2023/04/07 11:10:31;;;;;;;;;6.00;6.00;;;;;21.07;59.66;101611.97;5042672;28;45260;-76
2023/04/07 11:12:58;;;;;;;;;7.00;7.00;;;;;21.75;56.76;101623.31;5025047;28;45340;-78